sensor_id;sensor_type;location;lat;lon;timestamp;P1;durP1;ratioP1;P2;durP2;ratioP2
21806;SDS011;11065;50.786;7.840;2023-09-19T00:02:04;2.10;;;1.27;;
21806;SDS011;11065;50.786;7.840;2023-09-19T00:04:34;3.10;;;1.00;;
21806;SDS011;11065;50.786;7.840;2023-09-19T00:07:05;1.93;;;1.00;;
21806;SDS011;11065;50.786;7.840;2023-09-19T00:09:35;2.90;;;1.00;;
21806;SDS011;11065;50.786;7.840;2023-09-19T00:12:04;2.90;;;1.10;;
21806;SDS011;11065;50.786;7.840;2023-09-19T00:14:33;1.73;;;1.00;;
21806;SDS011;11065;50.786;7.840;2023-09-19T00:17:02;1.73;;;0.87;;
21806;SDS011;11065;50.786;7.840;2023-09-19T00:19:34;1.27;;;0.70;;
21806;SDS011;11065;50.786;7.840;2023-09-19T00:22:03;1.90;;;0.90;;
21806;SDS011;11065;50.786;7.840;2023-09-19T00:24:31;2.80;;;0.90;;
21806;SDS011;11065;50.786;7.840;2023-09-19T00:26:59;2.77;;;0.80;;
21806;SDS011;11065;50.786;7.840;2023-09-19T00:29:27;2.43;;;0.87;;
21806;SDS011;11065;50.786;7.840;2023-09-19T00:31:58;2.20;;;1.00;;
21806;SDS011;11065;50.786;7.840;2023-09-19T00:34:28;1.63;;;0.90;;
21806;SDS011;11065;50.786;7.840;2023-09-19T00:36:56;3.17;;;1.00;;
21806;SDS011;11065;50.786;7.840;2023-09-19T00:39:24;3.30;;;0.73;;
21806;SDS011;11065;50.786;7.840;2023-09-19T00:41:52;3.30;;;0.80;;
21806;SDS011;11065;50.786;7.840;2023-09-19T00:44:21;2.10;;;0.80;;
21806;SDS011;11065;50.786;7.840;2023-09-19T00:46:49;1.43;;;0.60;;
21806;SDS011;11065;50.786;7.840;2023-09-19T00:49:18;3.47;;;1.20;;
21806;SDS011;11065;50.786;7.840;2023-09-19T00:51:49;2.13;;;0.90;;
21806;SDS011;11065;50.786;7.840;2023-09-19T00:54:18;5.67;;;1.00;;
21806;SDS011;11065;50.786;7.840;2023-09-19T00:56:46;4.20;;;0.90;;
21806;SDS011;11065;50.786;7.840;2023-09-19T00:59:15;2.77;;;0.93;;
21806;SDS011;11065;50.786;7.840;2023-09-19T01:01:43;1.40;;;0.80;;
21806;SDS011;11065;50.786;7.840;2023-09-19T01:04:12;1.90;;;0.77;;
21806;SDS011;11065;50.786;7.840;2023-09-19T01:06:40;4.63;;;1.10;;
21806;SDS011;11065;50.786;7.840;2023-09-19T01:09:12;2.97;;;1.20;;
21806;SDS011;11065;50.786;7.840;2023-09-19T01:11:40;3.30;;;1.10;;
21806;SDS011;11065;50.786;7.840;2023-09-19T01:14:15;2.90;;;0.97;;
21806;SDS011;11065;50.786;7.840;2023-09-19T01:16:53;2.93;;;0.90;;
21806;SDS011;11065;50.786;7.840;2023-09-19T01:22:37;1.80;;;0.83;;
21806;SDS011;11065;50.786;7.840;2023-09-19T01:28:30;2.20;;;0.73;;
21806;SDS011;11065;50.786;7.840;2023-09-19T01:31:04;3.13;;;1.07;;
21806;SDS011;11065;50.786;7.840;2023-09-19T01:33:55;2.60;;;1.00;;
21806;SDS011;11065;50.786;7.840;2023-09-19T01:36:28;4.20;;;1.10;;
21806;SDS011;11065;50.786;7.840;2023-09-19T01:38:57;3.63;;;0.90;;
21806;SDS011;11065;50.786;7.840;2023-09-19T01:41:41;2.33;;;0.70;;
21806;SDS011;11065;50.786;7.840;2023-09-19T01:44:17;3.63;;;0.73;;
21806;SDS011;11065;50.786;7.840;2023-09-19T01:46:51;3.87;;;1.20;;
21806;SDS011;11065;50.786;7.840;2023-09-19T01:49:29;1.93;;;0.93;;
21806;SDS011;11065;50.786;7.840;2023-09-19T01:52:02;2.73;;;0.83;;
21806;SDS011;11065;50.786;7.840;2023-09-19T01:54:36;3.97;;;1.00;;
21806;SDS011;11065;50.786;7.840;2023-09-19T01:57:11;3.83;;;0.90;;
21806;SDS011;11065;50.786;7.840;2023-09-19T01:59:45;1.90;;;0.80;;
21806;SDS011;11065;50.786;7.840;2023-09-19T02:02:21;3.93;;;0.87;;
21806;SDS011;11065;50.786;7.840;2023-09-19T02:04:50;1.87;;;0.80;;
21806;SDS011;11065;50.786;7.840;2023-09-19T02:07:19;1.97;;;0.70;;
21806;SDS011;11065;50.786;7.840;2023-09-19T02:09:48;6.70;;;0.90;;
21806;SDS011;11065;50.786;7.840;2023-09-19T02:12:16;1.87;;;0.80;;
21806;SDS011;11065;50.786;7.840;2023-09-19T02:14:44;3.43;;;1.20;;
21806;SDS011;11065;50.786;7.840;2023-09-19T02:17:13;2.93;;;0.90;;
21806;SDS011;11065;50.786;7.840;2023-09-19T02:19:42;3.63;;;0.90;;
21806;SDS011;11065;50.786;7.840;2023-09-19T02:22:10;3.17;;;0.97;;
21806;SDS011;11065;50.786;7.840;2023-09-19T02:24:38;2.10;;;0.80;;
21806;SDS011;11065;50.786;7.840;2023-09-19T02:27:07;1.70;;;0.70;;
21806;SDS011;11065;50.786;7.840;2023-09-19T02:29:35;1.60;;;0.83;;
21806;SDS011;11065;50.786;7.840;2023-09-19T02:32:03;1.63;;;0.77;;
21806;SDS011;11065;50.786;7.840;2023-09-19T02:34:32;2.70;;;0.80;;
21806;SDS011;11065;50.786;7.840;2023-09-19T02:37:04;1.73;;;0.80;;
21806;SDS011;11065;50.786;7.840;2023-09-19T02:39:32;2.20;;;0.73;;
21806;SDS011;11065;50.786;7.840;2023-09-19T02:42:00;2.10;;;0.80;;
21806;SDS011;11065;50.786;7.840;2023-09-19T02:44:30;3.80;;;1.00;;
21806;SDS011;11065;50.786;7.840;2023-09-19T02:46:58;2.67;;;0.77;;
21806;SDS011;11065;50.786;7.840;2023-09-19T02:49:27;2.83;;;0.90;;
21806;SDS011;11065;50.786;7.840;2023-09-19T02:51:55;2.13;;;0.93;;
21806;SDS011;11065;50.786;7.840;2023-09-19T02:54:26;1.73;;;0.80;;
21806;SDS011;11065;50.786;7.840;2023-09-19T02:56:54;4.13;;;1.07;;
21806;SDS011;11065;50.786;7.840;2023-09-19T02:59:23;3.00;;;0.90;;
21806;SDS011;11065;50.786;7.840;2023-09-19T03:01:51;3.53;;;0.80;;
21806;SDS011;11065;50.786;7.840;2023-09-19T03:04:21;3.27;;;0.90;;
21806;SDS011;11065;50.786;7.840;2023-09-19T03:06:49;3.53;;;1.17;;
21806;SDS011;11065;50.786;7.840;2023-09-19T03:09:18;3.23;;;1.10;;
21806;SDS011;11065;50.786;7.840;2023-09-19T03:11:47;3.43;;;1.00;;
21806;SDS011;11065;50.786;7.840;2023-09-19T03:14:16;2.87;;;0.87;;
21806;SDS011;11065;50.786;7.840;2023-09-19T03:16:47;3.10;;;0.87;;
21806;SDS011;11065;50.786;7.840;2023-09-19T03:19:15;4.30;;;0.87;;
21806;SDS011;11065;50.786;7.840;2023-09-19T03:21:43;3.77;;;1.20;;
21806;SDS011;11065;50.786;7.840;2023-09-19T03:24:12;4.27;;;1.27;;
21806;SDS011;11065;50.786;7.840;2023-09-19T03:26:40;3.20;;;0.90;;
21806;SDS011;11065;50.786;7.840;2023-09-19T03:29:09;3.33;;;1.00;;
21806;SDS011;11065;50.786;7.840;2023-09-19T03:31:38;4.30;;;1.00;;
21806;SDS011;11065;50.786;7.840;2023-09-19T03:34:07;3.63;;;1.10;;
21806;SDS011;11065;50.786;7.840;2023-09-19T03:36:36;3.17;;;0.73;;
21806;SDS011;11065;50.786;7.840;2023-09-19T03:39:04;4.00;;;1.40;;
21806;SDS011;11065;50.786;7.840;2023-09-19T03:41:32;3.27;;;1.40;;
21806;SDS011;11065;50.786;7.840;2023-09-19T03:44:04;4.60;;;1.03;;
21806;SDS011;11065;50.786;7.840;2023-09-19T03:46:34;4.03;;;1.00;;
21806;SDS011;11065;50.786;7.840;2023-09-19T03:49:04;5.03;;;1.10;;
21806;SDS011;11065;50.786;7.840;2023-09-19T03:51:32;6.73;;;1.30;;
21806;SDS011;11065;50.786;7.840;2023-09-19T03:54:01;4.07;;;1.13;;
21806;SDS011;11065;50.786;7.840;2023-09-19T03:56:31;4.63;;;1.20;;
21806;SDS011;11065;50.786;7.840;2023-09-19T03:58:59;3.53;;;1.20;;
21806;SDS011;11065;50.786;7.840;2023-09-19T04:01:27;4.07;;;0.90;;
21806;SDS011;11065;50.786;7.840;2023-09-19T04:03:59;2.37;;;0.87;;
21806;SDS011;11065;50.786;7.840;2023-09-19T04:06:35;3.70;;;0.90;;
21806;SDS011;11065;50.786;7.840;2023-09-19T04:09:04;5.33;;;1.37;;
21806;SDS011;11065;50.786;7.840;2023-09-19T04:11:33;4.47;;;1.03;;
21806;SDS011;11065;50.786;7.840;2023-09-19T04:14:02;3.83;;;1.03;;
21806;SDS011;11065;50.786;7.840;2023-09-19T04:16:31;3.63;;;1.33;;
21806;SDS011;11065;50.786;7.840;2023-09-19T04:19:00;3.30;;;0.80;;
21806;SDS011;11065;50.786;7.840;2023-09-19T04:21:29;4.80;;;1.30;;
21806;SDS011;11065;50.786;7.840;2023-09-19T04:23:57;4.60;;;0.93;;
21806;SDS011;11065;50.786;7.840;2023-09-19T04:26:25;3.63;;;1.13;;
21806;SDS011;11065;50.786;7.840;2023-09-19T04:28:53;3.87;;;1.03;;
21806;SDS011;11065;50.786;7.840;2023-09-19T04:31:22;3.60;;;1.00;;
21806;SDS011;11065;50.786;7.840;2023-09-19T04:33:50;4.57;;;1.20;;
21806;SDS011;11065;50.786;7.840;2023-09-19T04:36:20;3.83;;;1.00;;
21806;SDS011;11065;50.786;7.840;2023-09-19T04:39:00;3.27;;;1.20;;
21806;SDS011;11065;50.786;7.840;2023-09-19T04:41:31;5.40;;;1.37;;
21806;SDS011;11065;50.786;7.840;2023-09-19T04:43:59;5.63;;;1.43;;
21806;SDS011;11065;50.786;7.840;2023-09-19T04:46:27;3.73;;;1.20;;
21806;SDS011;11065;50.786;7.840;2023-09-19T04:48:54;4.63;;;1.30;;
21806;SDS011;11065;50.786;7.840;2023-09-19T04:51:24;4.20;;;1.20;;
21806;SDS011;11065;50.786;7.840;2023-09-19T04:53:55;3.97;;;1.20;;
21806;SDS011;11065;50.786;7.840;2023-09-19T04:56:23;3.93;;;1.37;;
21806;SDS011;11065;50.786;7.840;2023-09-19T04:58:51;4.60;;;1.10;;
21806;SDS011;11065;50.786;7.840;2023-09-19T05:01:20;4.67;;;1.77;;
21806;SDS011;11065;50.786;7.840;2023-09-19T05:03:49;5.53;;;1.37;;
21806;SDS011;11065;50.786;7.840;2023-09-19T05:06:18;6.10;;;1.37;;
21806;SDS011;11065;50.786;7.840;2023-09-19T05:08:49;5.20;;;1.57;;
21806;SDS011;11065;50.786;7.840;2023-09-19T05:11:18;4.77;;;1.17;;
21806;SDS011;11065;50.786;7.840;2023-09-19T05:13:47;5.37;;;1.73;;
21806;SDS011;11065;50.786;7.840;2023-09-19T05:16:16;5.63;;;1.30;;
21806;SDS011;11065;50.786;7.840;2023-09-19T05:18:44;7.40;;;1.50;;
21806;SDS011;11065;50.786;7.840;2023-09-19T05:21:12;4.77;;;1.30;;
21806;SDS011;11065;50.786;7.840;2023-09-19T05:23:40;5.43;;;1.50;;
21806;SDS011;11065;50.786;7.840;2023-09-19T05:26:09;3.67;;;1.23;;
21806;SDS011;11065;50.786;7.840;2023-09-19T05:28:38;4.00;;;1.27;;
21806;SDS011;11065;50.786;7.840;2023-09-19T05:31:06;3.43;;;1.27;;
21806;SDS011;11065;50.786;7.840;2023-09-19T05:33:34;3.77;;;1.10;;
21806;SDS011;11065;50.786;7.840;2023-09-19T05:36:02;5.93;;;1.20;;
21806;SDS011;11065;50.786;7.840;2023-09-19T05:38:31;5.87;;;1.27;;
21806;SDS011;11065;50.786;7.840;2023-09-19T05:40:58;4.60;;;1.17;;
21806;SDS011;11065;50.786;7.840;2023-09-19T05:43:28;4.47;;;1.30;;
21806;SDS011;11065;50.786;7.840;2023-09-19T05:45:56;3.63;;;1.20;;
21806;SDS011;11065;50.786;7.840;2023-09-19T05:48:27;5.07;;;1.30;;
21806;SDS011;11065;50.786;7.840;2023-09-19T05:50:55;4.93;;;1.40;;
21806;SDS011;11065;50.786;7.840;2023-09-19T05:53:23;4.70;;;1.10;;
21806;SDS011;11065;50.786;7.840;2023-09-19T05:55:51;4.57;;;1.40;;
21806;SDS011;11065;50.786;7.840;2023-09-19T05:58:21;6.13;;;1.47;;
21806;SDS011;11065;50.786;7.840;2023-09-19T06:00:51;3.63;;;1.00;;
21806;SDS011;11065;50.786;7.840;2023-09-19T06:03:19;4.90;;;1.43;;
21806;SDS011;11065;50.786;7.840;2023-09-19T06:05:47;6.63;;;1.13;;
21806;SDS011;11065;50.786;7.840;2023-09-19T06:08:15;3.90;;;1.10;;
21806;SDS011;11065;50.786;7.840;2023-09-19T06:10:43;4.37;;;1.13;;
21806;SDS011;11065;50.786;7.840;2023-09-19T06:13:13;5.13;;;1.00;;
21806;SDS011;11065;50.786;7.840;2023-09-19T06:15:41;3.47;;;1.07;;
21806;SDS011;11065;50.786;7.840;2023-09-19T06:18:11;3.87;;;1.30;;
21806;SDS011;11065;50.786;7.840;2023-09-19T06:20:46;3.53;;;1.00;;
21806;SDS011;11065;50.786;7.840;2023-09-19T06:23:14;5.47;;;1.20;;
21806;SDS011;11065;50.786;7.840;2023-09-19T06:25:43;3.47;;;1.03;;
21806;SDS011;11065;50.786;7.840;2023-09-19T06:28:11;2.10;;;0.97;;
21806;SDS011;11065;50.786;7.840;2023-09-19T06:30:39;4.17;;;0.87;;
21806;SDS011;11065;50.786;7.840;2023-09-19T06:33:08;4.40;;;0.90;;
21806;SDS011;11065;50.786;7.840;2023-09-19T06:35:39;6.10;;;1.40;;
21806;SDS011;11065;50.786;7.840;2023-09-19T06:38:08;3.43;;;1.20;;
21806;SDS011;11065;50.786;7.840;2023-09-19T06:40:37;4.30;;;1.30;;
21806;SDS011;11065;50.786;7.840;2023-09-19T06:43:06;4.03;;;1.10;;
21806;SDS011;11065;50.786;7.840;2023-09-19T06:45:34;4.20;;;1.40;;
21806;SDS011;11065;50.786;7.840;2023-09-19T06:48:03;8.10;;;1.97;;
21806;SDS011;11065;50.786;7.840;2023-09-19T06:50:32;5.20;;;1.30;;
21806;SDS011;11065;50.786;7.840;2023-09-19T06:53:03;4.67;;;1.13;;
21806;SDS011;11065;50.786;7.840;2023-09-19T06:55:31;5.17;;;1.40;;
21806;SDS011;11065;50.786;7.840;2023-09-19T06:58:00;7.23;;;2.03;;
21806;SDS011;11065;50.786;7.840;2023-09-19T07:00:28;2.97;;;1.03;;
21806;SDS011;11065;50.786;7.840;2023-09-19T07:02:58;4.30;;;1.40;;
21806;SDS011;11065;50.786;7.840;2023-09-19T07:05:30;4.63;;;1.00;;
21806;SDS011;11065;50.786;7.840;2023-09-19T07:07:59;4.23;;;1.30;;
21806;SDS011;11065;50.786;7.840;2023-09-19T07:10:29;7.77;;;1.60;;
21806;SDS011;11065;50.786;7.840;2023-09-19T07:12:57;3.80;;;1.10;;
21806;SDS011;11065;50.786;7.840;2023-09-19T07:15:26;3.13;;;1.10;;
21806;SDS011;11065;50.786;7.840;2023-09-19T07:17:55;3.40;;;1.20;;
21806;SDS011;11065;50.786;7.840;2023-09-19T07:20:23;7.70;;;1.60;;
21806;SDS011;11065;50.786;7.840;2023-09-19T07:22:53;6.03;;;1.93;;
21806;SDS011;11065;50.786;7.840;2023-09-19T07:25:22;3.63;;;1.30;;
21806;SDS011;11065;50.786;7.840;2023-09-19T07:27:51;5.03;;;1.37;;
21806;SDS011;11065;50.786;7.840;2023-09-19T07:30:19;6.00;;;1.50;;
21806;SDS011;11065;50.786;7.840;2023-09-19T07:32:47;6.43;;;1.40;;
21806;SDS011;11065;50.786;7.840;2023-09-19T07:35:15;6.00;;;1.70;;
21806;SDS011;11065;50.786;7.840;2023-09-19T07:37:45;4.43;;;1.37;;
21806;SDS011;11065;50.786;7.840;2023-09-19T07:40:16;4.67;;;1.33;;
21806;SDS011;11065;50.786;7.840;2023-09-19T07:42:44;4.63;;;1.20;;
21806;SDS011;11065;50.786;7.840;2023-09-19T07:45:14;4.27;;;1.27;;
21806;SDS011;11065;50.786;7.840;2023-09-19T07:47:43;4.30;;;1.27;;
21806;SDS011;11065;50.786;7.840;2023-09-19T07:50:13;6.40;;;1.50;;
21806;SDS011;11065;50.786;7.840;2023-09-19T07:52:42;8.57;;;1.53;;
21806;SDS011;11065;50.786;7.840;2023-09-19T07:55:10;2.90;;;0.90;;
21806;SDS011;11065;50.786;7.840;2023-09-19T07:57:42;7.43;;;1.50;;
21806;SDS011;11065;50.786;7.840;2023-09-19T08:00:10;6.07;;;1.63;;
21806;SDS011;11065;50.786;7.840;2023-09-19T08:02:40;7.23;;;1.70;;
21806;SDS011;11065;50.786;7.840;2023-09-19T08:05:09;8.60;;;1.73;;
21806;SDS011;11065;50.786;7.840;2023-09-19T08:07:42;5.33;;;1.50;;
21806;SDS011;11065;50.786;7.840;2023-09-19T08:10:11;4.63;;;1.40;;
21806;SDS011;11065;50.786;7.840;2023-09-19T08:12:39;4.20;;;1.30;;
21806;SDS011;11065;50.786;7.840;2023-09-19T08:15:12;6.57;;;1.57;;
21806;SDS011;11065;50.786;7.840;2023-09-19T08:17:42;5.70;;;1.53;;
21806;SDS011;11065;50.786;7.840;2023-09-19T08:20:11;6.60;;;1.93;;
21806;SDS011;11065;50.786;7.840;2023-09-19T08:22:43;5.50;;;1.57;;
21806;SDS011;11065;50.786;7.840;2023-09-19T08:25:14;6.77;;;1.30;;
21806;SDS011;11065;50.786;7.840;2023-09-19T08:27:44;6.50;;;1.30;;
21806;SDS011;11065;50.786;7.840;2023-09-19T08:30:14;6.50;;;1.70;;
21806;SDS011;11065;50.786;7.840;2023-09-19T08:32:44;5.47;;;1.50;;
21806;SDS011;11065;50.786;7.840;2023-09-19T08:35:12;9.17;;;1.80;;
21806;SDS011;11065;50.786;7.840;2023-09-19T08:37:41;5.03;;;1.50;;
21806;SDS011;11065;50.786;7.840;2023-09-19T08:40:11;6.50;;;1.67;;
21806;SDS011;11065;50.786;7.840;2023-09-19T08:42:49;5.83;;;1.43;;
21806;SDS011;11065;50.786;7.840;2023-09-19T08:45:17;5.57;;;1.63;;
21806;SDS011;11065;50.786;7.840;2023-09-19T08:47:47;5.50;;;1.43;;
21806;SDS011;11065;50.786;7.840;2023-09-19T08:50:25;6.07;;;1.73;;
21806;SDS011;11065;50.786;7.840;2023-09-19T08:52:55;4.93;;;1.40;;
21806;SDS011;11065;50.786;7.840;2023-09-19T08:55:27;6.03;;;1.80;;
21806;SDS011;11065;50.786;7.840;2023-09-19T08:57:59;7.70;;;1.73;;
21806;SDS011;11065;50.786;7.840;2023-09-19T09:00:28;4.10;;;1.30;;
21806;SDS011;11065;50.786;7.840;2023-09-19T09:02:58;4.27;;;1.27;;
21806;SDS011;11065;50.786;7.840;2023-09-19T09:05:28;8.33;;;1.70;;
21806;SDS011;11065;50.786;7.840;2023-09-19T09:07:58;6.80;;;1.57;;
21806;SDS011;11065;50.786;7.840;2023-09-19T09:10:27;7.03;;;1.80;;
21806;SDS011;11065;50.786;7.840;2023-09-19T09:12:55;6.10;;;1.65;;
21806;SDS011;11065;50.786;7.840;2023-09-19T09:15:25;5.65;;;1.30;;
21806;SDS011;11065;50.786;7.840;2023-09-19T09:17:53;8.05;;;2.10;;
21806;SDS011;11065;50.786;7.840;2023-09-19T09:20:23;4.15;;;1.38;;
21806;SDS011;11065;50.786;7.840;2023-09-19T09:22:51;5.13;;;1.50;;
21806;SDS011;11065;50.786;7.840;2023-09-19T09:25:21;4.97;;;1.45;;
21806;SDS011;11065;50.786;7.840;2023-09-19T09:27:59;6.93;;;1.40;;
21806;SDS011;11065;50.786;7.840;2023-09-19T09:30:34;6.13;;;1.50;;
21806;SDS011;11065;50.786;7.840;2023-09-19T09:33:07;5.20;;;1.35;;
21806;SDS011;11065;50.786;7.840;2023-09-19T09:35:47;4.50;;;1.48;;
21806;SDS011;11065;50.786;7.840;2023-09-19T09:38:19;4.68;;;1.30;;
21806;SDS011;11065;50.786;7.840;2023-09-19T09:40:48;6.05;;;1.50;;
21806;SDS011;11065;50.786;7.840;2023-09-19T09:43:30;5.10;;;1.40;;
21806;SDS011;11065;50.786;7.840;2023-09-19T09:46:10;4.57;;;1.40;;
21806;SDS011;11065;50.786;7.840;2023-09-19T09:48:58;3.38;;;1.60;;
21806;SDS011;11065;50.786;7.840;2023-09-19T09:51:59;4.35;;;1.55;;
21806;SDS011;11065;50.786;7.840;2023-09-19T09:54:35;4.63;;;1.30;;
21806;SDS011;11065;50.786;7.840;2023-09-19T09:57:04;6.13;;;1.35;;
21806;SDS011;11065;50.786;7.840;2023-09-19T09:59:48;6.53;;;1.73;;
21806;SDS011;11065;50.786;7.840;2023-09-19T10:02:21;4.50;;;1.27;;
21806;SDS011;11065;50.786;7.840;2023-09-19T10:04:56;5.03;;;1.50;;
21806;SDS011;11065;50.786;7.840;2023-09-19T10:07:41;4.45;;;1.30;;
21806;SDS011;11065;50.786;7.840;2023-09-19T10:10:28;3.80;;;1.30;;
21806;SDS011;11065;50.786;7.840;2023-09-19T10:13:05;4.95;;;1.52;;
21806;SDS011;11065;50.786;7.840;2023-09-19T10:15:38;5.93;;;1.85;;
21806;SDS011;11065;50.786;7.840;2023-09-19T10:18:10;6.22;;;1.30;;
21806;SDS011;11065;50.786;7.840;2023-09-19T10:20:44;6.10;;;1.77;;
21806;SDS011;11065;50.786;7.840;2023-09-19T10:23:16;4.65;;;1.58;;
21806;SDS011;11065;50.786;7.840;2023-09-19T10:25:50;6.78;;;1.77;;
21806;SDS011;11065;50.786;7.840;2023-09-19T10:28:20;3.25;;;1.30;;
21806;SDS011;11065;50.786;7.840;2023-09-19T10:30:50;4.38;;;1.20;;
21806;SDS011;11065;50.786;7.840;2023-09-19T10:33:20;5.63;;;1.30;;
21806;SDS011;11065;50.786;7.840;2023-09-19T10:35:49;4.20;;;1.27;;
21806;SDS011;11065;50.786;7.840;2023-09-19T10:38:22;5.07;;;1.40;;
21806;SDS011;11065;50.786;7.840;2023-09-19T10:40:52;4.07;;;1.20;;
21806;SDS011;11065;50.786;7.840;2023-09-19T10:43:23;8.00;;;1.67;;
21806;SDS011;11065;50.786;7.840;2023-09-19T10:46:02;4.10;;;1.38;;
21806;SDS011;11065;50.786;7.840;2023-09-19T10:48:35;4.40;;;1.40;;
21806;SDS011;11065;50.786;7.840;2023-09-19T10:51:06;5.20;;;1.63;;
21806;SDS011;11065;50.786;7.840;2023-09-19T10:53:43;3.20;;;1.73;;
21806;SDS011;11065;50.786;7.840;2023-09-19T10:56:16;5.03;;;1.60;;
21806;SDS011;11065;50.786;7.840;2023-09-19T10:58:48;4.07;;;1.50;;
21806;SDS011;11065;50.786;7.840;2023-09-19T11:01:17;6.03;;;1.48;;
21806;SDS011;11065;50.786;7.840;2023-09-19T11:03:47;4.35;;;1.40;;
21806;SDS011;11065;50.786;7.840;2023-09-19T11:06:19;6.10;;;1.50;;
21806;SDS011;11065;50.786;7.840;2023-09-19T11:08:56;3.83;;;1.38;;
21806;SDS011;11065;50.786;7.840;2023-09-19T11:11:43;3.25;;;1.25;;
21806;SDS011;11065;50.786;7.840;2023-09-19T11:14:29;6.70;;;1.50;;
21806;SDS011;11065;50.786;7.840;2023-09-19T11:20:20;4.82;;;1.70;;
21806;SDS011;11065;50.786;7.840;2023-09-19T11:25:54;2.83;;;1.00;;
21806;SDS011;11065;50.786;7.840;2023-09-19T11:28:29;4.40;;;1.10;;
21806;SDS011;11065;50.786;7.840;2023-09-19T11:30:57;3.25;;;1.30;;
21806;SDS011;11065;50.786;7.840;2023-09-19T11:33:25;4.10;;;1.40;;
21806;SDS011;11065;50.786;7.840;2023-09-19T11:36:01;4.20;;;1.50;;
21806;SDS011;11065;50.786;7.840;2023-09-19T11:41:39;6.70;;;1.50;;
21806;SDS011;11065;50.786;7.840;2023-09-19T11:47:02;4.18;;;1.40;;
21806;SDS011;11065;50.786;7.840;2023-09-19T11:49:33;4.68;;;1.67;;
21806;SDS011;11065;50.786;7.840;2023-09-19T11:52:04;3.90;;;1.45;;
21806;SDS011;11065;50.786;7.840;2023-09-19T11:54:35;5.20;;;1.60;;
21806;SDS011;11065;50.786;7.840;2023-09-19T11:57:07;7.45;;;1.83;;
21806;SDS011;11065;50.786;7.840;2023-09-19T11:59:38;4.65;;;1.63;;
21806;SDS011;11065;50.786;7.840;2023-09-19T12:02:07;5.35;;;1.48;;
21806;SDS011;11065;50.786;7.840;2023-09-19T12:04:37;4.57;;;1.58;;
21806;SDS011;11065;50.786;7.840;2023-09-19T12:07:08;10.38;;;2.30;;
21806;SDS011;11065;50.786;7.840;2023-09-19T12:09:41;6.38;;;2.08;;
21806;SDS011;11065;50.786;7.840;2023-09-19T12:12:11;5.18;;;1.67;;
21806;SDS011;11065;50.786;7.840;2023-09-19T12:14:47;5.00;;;1.67;;
21806;SDS011;11065;50.786;7.840;2023-09-19T12:17:15;4.07;;;1.65;;
21806;SDS011;11065;50.786;7.840;2023-09-19T12:19:49;8.43;;;1.98;;
21806;SDS011;11065;50.786;7.840;2023-09-19T12:22:17;7.25;;;1.80;;
21806;SDS011;11065;50.786;7.840;2023-09-19T12:24:46;7.05;;;1.85;;
21806;SDS011;11065;50.786;7.840;2023-09-19T12:27:16;4.43;;;1.70;;
21806;SDS011;11065;50.786;7.840;2023-09-19T12:29:44;5.97;;;1.60;;
21806;SDS011;11065;50.786;7.840;2023-09-19T12:32:15;4.30;;;1.27;;
21806;SDS011;11065;50.786;7.840;2023-09-19T12:34:55;5.18;;;1.52;;
21806;SDS011;11065;50.786;7.840;2023-09-19T12:37:23;3.22;;;1.27;;
21806;SDS011;11065;50.786;7.840;2023-09-19T12:40:03;3.75;;;1.23;;
21806;SDS011;11065;50.786;7.840;2023-09-19T12:42:42;3.95;;;1.27;;
21806;SDS011;11065;50.786;7.840;2023-09-19T12:45:11;5.40;;;1.50;;
21806;SDS011;11065;50.786;7.840;2023-09-19T12:50:58;4.30;;;1.48;;
21806;SDS011;11065;50.786;7.840;2023-09-19T12:53:31;6.15;;;1.42;;
21806;SDS011;11065;50.786;7.840;2023-09-19T12:56:02;4.40;;;1.40;;
21806;SDS011;11065;50.786;7.840;2023-09-19T12:58:33;5.53;;;1.55;;
21806;SDS011;11065;50.786;7.840;2023-09-19T13:01:13;4.70;;;1.67;;
21806;SDS011;11065;50.786;7.840;2023-09-19T13:03:41;4.03;;;1.50;;
21806;SDS011;11065;50.786;7.840;2023-09-19T13:06:10;4.03;;;1.30;;
21806;SDS011;11065;50.786;7.840;2023-09-19T13:08:39;3.70;;;1.23;;
21806;SDS011;11065;50.786;7.840;2023-09-19T13:11:09;3.72;;;1.05;;
21806;SDS011;11065;50.786;7.840;2023-09-19T13:13:44;3.42;;;1.30;;
21806;SDS011;11065;50.786;7.840;2023-09-19T13:16:16;4.10;;;1.30;;
21806;SDS011;11065;50.786;7.840;2023-09-19T13:18:49;4.97;;;1.60;;
21806;SDS011;11065;50.786;7.840;2023-09-19T13:21:26;5.68;;;1.45;;
21806;SDS011;11065;50.786;7.840;2023-09-19T13:23:56;3.35;;;1.30;;
21806;SDS011;11065;50.786;7.840;2023-09-19T13:26:44;2.80;;;1.30;;
21806;SDS011;11065;50.786;7.840;2023-09-19T13:29:13;3.58;;;1.40;;
21806;SDS011;11065;50.786;7.840;2023-09-19T13:31:45;3.60;;;1.27;;
21806;SDS011;11065;50.786;7.840;2023-09-19T13:34:14;2.88;;;1.17;;
21806;SDS011;11065;50.786;7.840;2023-09-19T13:36:43;4.13;;;1.23;;
21806;SDS011;11065;50.786;7.840;2023-09-19T13:39:14;6.22;;;1.42;;
21806;SDS011;11065;50.786;7.840;2023-09-19T13:41:43;2.25;;;1.08;;
21806;SDS011;11065;50.786;7.840;2023-09-19T13:44:14;4.50;;;1.27;;
21806;SDS011;11065;50.786;7.840;2023-09-19T13:46:43;3.08;;;1.20;;
21806;SDS011;11065;50.786;7.840;2023-09-19T13:49:13;4.03;;;1.38;;
21806;SDS011;11065;50.786;7.840;2023-09-19T13:51:41;3.67;;;1.30;;
21806;SDS011;11065;50.786;7.840;2023-09-19T13:54:11;3.33;;;1.15;;
21806;SDS011;11065;50.786;7.840;2023-09-19T13:56:39;4.55;;;1.23;;
21806;SDS011;11065;50.786;7.840;2023-09-19T13:59:07;3.45;;;1.10;;
21806;SDS011;11065;50.786;7.840;2023-09-19T14:01:36;3.95;;;1.02;;
21806;SDS011;11065;50.786;7.840;2023-09-19T14:04:06;7.85;;;1.40;;
21806;SDS011;11065;50.786;7.840;2023-09-19T14:06:34;4.50;;;1.35;;
21806;SDS011;11065;50.786;7.840;2023-09-19T14:09:04;3.80;;;1.13;;
21806;SDS011;11065;50.786;7.840;2023-09-19T14:11:34;4.60;;;1.25;;
21806;SDS011;11065;50.786;7.840;2023-09-19T14:14:02;2.67;;;1.00;;
21806;SDS011;11065;50.786;7.840;2023-09-19T14:16:31;3.80;;;1.02;;
21806;SDS011;11065;50.786;7.840;2023-09-19T14:19:01;4.57;;;1.15;;
21806;SDS011;11065;50.786;7.840;2023-09-19T14:21:29;3.55;;;1.05;;
21806;SDS011;11065;50.786;7.840;2023-09-19T14:23:57;2.42;;;1.10;;
21806;SDS011;11065;50.786;7.840;2023-09-19T14:26:25;4.28;;;1.02;;
21806;SDS011;11065;50.786;7.840;2023-09-19T14:28:53;2.05;;;0.80;;
21806;SDS011;11065;50.786;7.840;2023-09-19T14:31:21;4.70;;;1.00;;
21806;SDS011;11065;50.786;7.840;2023-09-19T14:33:53;2.83;;;1.30;;
21806;SDS011;11065;50.786;7.840;2023-09-19T14:36:23;5.78;;;1.10;;
21806;SDS011;11065;50.786;7.840;2023-09-19T14:38:52;5.35;;;1.25;;
21806;SDS011;11065;50.786;7.840;2023-09-19T14:41:21;4.15;;;1.00;;
21806;SDS011;11065;50.786;7.840;2023-09-19T14:43:52;3.42;;;1.13;;
21806;SDS011;11065;50.786;7.840;2023-09-19T14:46:21;5.50;;;1.23;;
21806;SDS011;11065;50.786;7.840;2023-09-19T14:48:50;3.38;;;0.93;;
21806;SDS011;11065;50.786;7.840;2023-09-19T14:51:19;2.80;;;0.80;;
21806;SDS011;11065;50.786;7.840;2023-09-19T14:53:48;3.38;;;0.82;;
21806;SDS011;11065;50.786;7.840;2023-09-19T14:56:16;3.78;;;0.80;;
21806;SDS011;11065;50.786;7.840;2023-09-19T14:58:46;3.58;;;1.00;;
21806;SDS011;11065;50.786;7.840;2023-09-19T15:01:14;2.78;;;0.85;;
21806;SDS011;11065;50.786;7.840;2023-09-19T15:03:43;2.28;;;0.75;;
21806;SDS011;11065;50.786;7.840;2023-09-19T15:06:13;3.63;;;0.90;;
21806;SDS011;11065;50.786;7.840;2023-09-19T15:08:43;5.32;;;1.10;;
21806;SDS011;11065;50.786;7.840;2023-09-19T15:11:15;2.67;;;1.00;;
21806;SDS011;11065;50.786;7.840;2023-09-19T15:13:45;1.90;;;0.70;;
21806;SDS011;11065;50.786;7.840;2023-09-19T15:16:14;3.22;;;0.90;;
21806;SDS011;11065;50.786;7.840;2023-09-19T15:18:45;2.17;;;0.73;;
21806;SDS011;11065;50.786;7.840;2023-09-19T15:21:14;2.65;;;1.10;;
21806;SDS011;11065;50.786;7.840;2023-09-19T15:23:43;2.28;;;0.80;;
21806;SDS011;11065;50.786;7.840;2023-09-19T15:26:12;2.85;;;1.13;;
21806;SDS011;11065;50.786;7.840;2023-09-19T15:28:45;2.08;;;0.75;;
21806;SDS011;11065;50.786;7.840;2023-09-19T15:31:14;3.22;;;0.95;;